Time;durP1;ratioP1;P1;durP2;ratioP2;P2;SDS_P1;SDS_P2;PMS_P1;PMS_P2;Temp;Humidity;BMP_temperature;BMP_pressure;BME280_temperature;BME280_humidity;BME280_pressure;Samples;Min_cycle;Max_cycle;Signal;HPM_P1;HPM_P2
2022/05/28 00:01:16;;;;;;;4.30;3.77;;;;;;;;;;4971899;28;20983;-77
2022/05/28 00:03:43;;;;;;;5.37;4.17;;;;;;;;;;4954169;28;20458;-78
2022/05/28 00:06:10;;;;;;;7.07;4.20;;;;;;;;;;4973632;28;20451;-78
2022/05/28 00:08:36;;;;;;;4.13;3.73;;;;;;;;;;4972170;28;20474;-79
2022/05/28 00:11:10;;;;;;;6.60;4.10;;;;;;;;;;4952701;28;20502;-78
2022/05/28 00:13:37;;;;;;;5.73;4.10;;;;;;;;;;4954217;28;20462;-78
2022/05/28 00:16:03;;;;;;;8.60;4.80;;;;;;;;;;4973061;28;20527;-78
2022/05/28 00:18:31;;;;;;;6.60;4.57;;;;;;;;;;4954483;28;20574;-78
2022/05/28 00:20:57;;;;;;;6.50;4.53;;;;;;;;;;4971805;28;20482;-78
2022/05/28 00:23:24;;;;;;;8.33;4.57;;;;;;;;;;4971357;28;20453;-77
2022/05/28 00:25:51;;;;;;;6.90;4.63;;;;;;;;;;4972448;28;20945;-78
2022/05/28 00:28:21;;;;;;;9.90;4.70;;;;;;;;;;4968676;28;20454;-79
2022/05/28 00:30:47;;;;;;;6.30;5.20;;;;;;;;;;4969380;28;20481;-79
2022/05/28 00:33:14;;;;;;;5.27;4.57;;;;;;;;;;4968909;28;20450;-79
2022/05/28 00:35:40;;;;;;;7.87;5.20;;;;;;;;;;4970010;28;20521;-79
2022/05/28 00:38:07;;;;;;;5.70;4.23;;;;;;;;;;4969878;28;20455;-79
2022/05/28 00:40:33;;;;;;;6.50;5.13;;;;;;;;;;4954622;28;20514;-79
2022/05/28 00:43:00;;;;;;;6.67;5.40;;;;;;;;;;4954670;28;20517;-79
2022/05/28 00:45:28;;;;;;;7.60;4.57;;;;;;;;;;4955167;28;20445;-79
2022/05/28 00:47:56;;;;;;;5.10;4.57;;;;;;;;;;4968492;28;20453;-79
2022/05/28 00:50:23;;;;;;;6.50;4.50;;;;;;;;;;4961375;28;20804;-78
2022/05/28 00:52:49;;;;;;;5.33;4.83;;;;;;;;;;4954722;28;20449;-78
2022/05/28 00:55:17;;;;;;;5.20;4.70;;;;;;;;;;4970390;28;21009;-79
2022/05/28 00:57:44;;;;;;;6.13;5.50;;;;;;;;;;4969076;28;20844;-78
2022/05/28 01:00:11;;;;;;;7.33;5.03;;;;;;;;;;4957548;28;20442;-78
2022/05/28 01:02:43;;;;;;;6.40;5.00;;;;;;;;;;4971127;28;20616;-78
2022/05/28 01:05:12;;;;;;;8.80;4.77;;;;;;;;;;4970121;28;20597;-78
2022/05/28 01:07:41;;;;;;;7.87;5.00;;;;;;;;;;4948826;28;20446;-78
2022/05/28 01:10:13;;;;;;;7.17;5.20;;;;;;;;;;4953268;28;20475;-79
2022/05/28 01:12:46;;;;;;;6.70;4.90;;;;;;;;;;4956492;28;20443;-78
2022/05/28 01:15:14;;;;;;;8.20;5.73;;;;;;;;;;4976760;28;20488;-78
2022/05/28 01:17:45;;;;;;;7.50;4.50;;;;;;;;;;4971670;28;20446;-78
2022/05/28 01:20:15;;;;;;;5.47;4.97;;;;;;;;;;4964246;28;20448;-78
2022/05/28 01:22:52;;;;;;;7.23;5.30;;;;;;;;;;4957299;28;20460;-78
2022/05/28 01:25:22;;;;;;;9.40;5.47;;;;;;;;;;4973944;28;20784;-78
2022/05/28 01:27:52;;;;;;;5.87;4.90;;;;;;;;;;4975677;28;20474;-78
2022/05/28 01:30:19;;;;;;;5.90;4.90;;;;;;;;;;4974169;28;20466;-79
2022/05/28 01:32:47;;;;;;;9.17;5.00;;;;;;;;;;4956515;28;20537;-78
2022/05/28 01:35:16;;;;;;;5.23;4.73;;;;;;;;;;4962281;28;20436;-78
2022/05/28 01:37:44;;;;;;;6.80;5.77;;;;;;;;;;4949299;28;20462;-78
2022/05/28 01:40:11;;;;;;;5.30;4.60;;;;;;;;;;4974368;28;20478;-78
2022/05/28 01:42:38;;;;;;;6.43;4.33;;;;;;;;;;4971156;28;21154;-78
2022/05/28 01:45:07;;;;;;;7.30;5.00;;;;;;;;;;4954848;28;20457;-79
2022/05/28 01:47:35;;;;;;;7.67;4.43;;;;;;;;;;4958479;28;21020;-78
2022/05/28 01:50:02;;;;;;;6.83;4.50;;;;;;;;;;4973349;28;20462;-78
2022/05/28 01:52:29;;;;;;;7.70;4.60;;;;;;;;;;4973512;28;20480;-78
2022/05/28 01:54:57;;;;;;;9.47;4.63;;;;;;;;;;4957264;28;20529;-78
2022/05/28 01:57:24;;;;;;;6.30;4.27;;;;;;;;;;4975752;28;20533;-78
2022/05/28 01:59:52;;;;;;;5.80;3.70;;;;;;;;;;4957065;28;20455;-78
2022/05/28 02:02:20;;;;;;;7.80;4.77;;;;;;;;;;4973908;28;20443;-78
2022/05/28 02:04:47;;;;;;;5.20;4.40;;;;;;;;;;4957048;28;20509;-78
2022/05/28 02:07:14;;;;;;;4.60;3.80;;;;;;;;;;4974762;28;20752;-78
2022/05/28 02:09:42;;;;;;;6.00;3.97;;;;;;;;;;4955512;28;20465;-78
2022/05/28 02:12:13;;;;;;;6.63;3.67;;;;;;;;;;4957178;28;20451;-79
2022/05/28 02:14:47;;;;;;;5.00;4.10;;;;;;;;;;4957485;28;20451;-78
2022/05/28 02:17:17;;;;;;;6.40;3.47;;;;;;;;;;4975283;28;20520;-78
2022/05/28 02:19:48;;;;;;;7.70;4.07;;;;;;;;;;4973561;28;20469;-79
2022/05/28 02:22:18;;;;;;;7.67;4.40;;;;;;;;;;4975057;28;20899;-79
2022/05/28 02:24:46;;;;;;;5.53;3.63;;;;;;;;;;4957892;28;20457;-76
2022/05/28 02:27:15;;;;;;;6.00;3.30;;;;;;;;;;4956906;28;20461;-76
2022/05/28 02:29:41;;;;;;;6.40;4.00;;;;;;;;;;4975213;28;20451;-76
2022/05/28 02:32:15;;;;;;;7.00;3.53;;;;;;;;;;4959898;28;20506;-76
2022/05/28 02:34:45;;;;;;;3.80;2.70;;;;;;;;;;4957378;28;20557;-77
2022/05/28 02:37:13;;;;;;;8.33;3.13;;;;;;;;;;4973072;28;20446;-76
2022/05/28 02:39:40;;;;;;;8.97;5.40;;;;;;;;;;4974548;28;20465;-77
2022/05/28 02:42:06;;;;;;;3.97;2.90;;;;;;;;;;4956287;28;20439;-77
2022/05/28 02:44:33;;;;;;;4.43;2.40;;;;;;;;;;4956859;28;20446;-77
2022/05/28 02:46:59;;;;;;;5.17;3.23;;;;;;;;;;4962727;28;20442;-76
2022/05/28 02:49:26;;;;;;;8.37;4.00;;;;;;;;;;4956929;28;20457;-76
2022/05/28 02:51:53;;;;;;;4.73;2.90;;;;;;;;;;4940557;28;20467;-76
2022/05/28 02:54:22;;;;;;;5.47;3.00;;;;;;;;;;4973234;28;20868;-76
2022/05/28 02:56:49;;;;;;;9.00;2.93;;;;;;;;;;4956549;28;20486;-76
2022/05/28 02:59:16;;;;;;;5.73;3.30;;;;;;;;;;4974782;28;20435;-76
2022/05/28 03:01:42;;;;;;;4.63;3.00;;;;;;;;;;4973645;28;20426;-76
2022/05/28 03:04:09;;;;;;;8.93;3.30;;;;;;;;;;4972265;28;20497;-76
2022/05/28 03:06:37;;;;;;;7.43;3.53;;;;;;;;;;4955651;28;20454;-78
2022/05/28 03:09:04;;;;;;;4.40;3.30;;;;;;;;;;4974706;28;20430;-78
2022/05/28 03:11:32;;;;;;;4.40;2.40;;;;;;;;;;4956603;28;20477;-78
2022/05/28 03:13:58;;;;;;;6.90;3.03;;;;;;;;;;4955764;28;20450;-78
2022/05/28 03:16:25;;;;;;;4.47;2.80;;;;;;;;;;4954247;28;20454;-78
2022/05/28 03:18:51;;;;;;;4.80;2.63;;;;;;;;;;4974280;28;20500;-78
2022/05/28 03:21:18;;;;;;;6.07;2.77;;;;;;;;;;4973382;28;20427;-78
2022/05/28 03:23:47;;;;;;;5.00;2.80;;;;;;;;;;4955489;28;20443;-78
2022/05/28 03:26:14;;;;;;;8.33;2.60;;;;;;;;;;4953897;28;20450;-78
2022/05/28 03:28:42;;;;;;;8.03;2.77;;;;;;;;;;4974055;28;20936;-78
2022/05/28 03:31:09;;;;;;;3.40;2.30;;;;;;;;;;4963849;28;20545;-78
2022/05/28 03:33:35;;;;;;;5.93;2.40;;;;;;;;;;4961390;28;20446;-78
2022/05/28 03:36:02;;;;;;;5.33;2.37;;;;;;;;;;4952002;28;20533;-78
2022/05/28 03:38:29;;;;;;;7.17;3.40;;;;;;;;;;4973966;28;20450;-78
2022/05/28 03:40:55;;;;;;;3.77;2.20;;;;;;;;;;4972058;28;20942;-78
2022/05/28 03:43:21;;;;;;;3.40;2.47;;;;;;;;;;4955142;28;20569;-78
2022/05/28 03:45:49;;;;;;;3.40;2.30;;;;;;;;;;4973843;28;20505;-78
2022/05/28 03:48:16;;;;;;;3.73;2.43;;;;;;;;;;4956302;28;20553;-78
2022/05/28 03:50:42;;;;;;;5.23;2.40;;;;;;;;;;4973063;28;20957;-78
2022/05/28 03:53:09;;;;;;;6.10;3.10;;;;;;;;;;4971631;28;20464;-78
2022/05/28 03:55:36;;;;;;;6.43;2.30;;;;;;;;;;4973403;28;20985;-78
2022/05/28 03:58:03;;;;;;;9.10;2.77;;;;;;;;;;4955620;28;20446;-78
2022/05/28 04:00:30;;;;;;;5.50;3.53;;;;;;;;;;4956009;28;20439;-78
2022/05/28 04:02:58;;;;;;;8.93;2.73;;;;;;;;;;4954658;28;20469;-78
2022/05/28 04:05:25;;;;;;;6.30;1.93;;;;;;;;;;4955013;28;20871;-78
2022/05/28 04:07:52;;;;;;;4.73;2.50;;;;;;;;;;4946413;29;20439;-78
2022/05/28 04:10:18;;;;;;;7.67;2.40;;;;;;;;;;4960411;28;20517;-78
2022/05/28 04:12:45;;;;;;;4.37;2.17;;;;;;;;;;4970700;28;20513;-78
2022/05/28 04:15:12;;;;;;;2.90;1.90;;;;;;;;;;4969432;28;20815;-78
2022/05/28 04:17:39;;;;;;;4.37;2.37;;;;;;;;;;4962946;28;20537;-78
2022/05/28 04:20:09;;;;;;;6.50;3.13;;;;;;;;;;4955022;28;20439;-78
2022/05/28 04:22:35;;;;;;;8.30;2.43;;;;;;;;;;4971862;28;20791;-78
2022/05/28 04:25:04;;;;;;;4.57;2.23;;;;;;;;;;4963061;28;20446;-78
2022/05/28 04:27:31;;;;;;;6.00;2.40;;;;;;;;;;4961543;28;20531;-78
2022/05/28 04:29:59;;;;;;;5.47;2.77;;;;;;;;;;4973038;28;20562;-78
2022/05/28 04:32:26;;;;;;;3.73;2.10;;;;;;;;;;4966242;28;20481;-78
2022/05/28 04:34:52;;;;;;;5.30;2.50;;;;;;;;;;4972024;28;20846;-78
2022/05/28 04:37:20;;;;;;;5.17;2.50;;;;;;;;;;4958141;28;20447;-78
2022/05/28 04:39:46;;;;;;;5.30;1.90;;;;;;;;;;4941610;28;20538;-79
2022/05/28 04:42:13;;;;;;;4.87;1.80;;;;;;;;;;4954504;28;20438;-79
2022/05/28 04:44:39;;;;;;;4.90;2.03;;;;;;;;;;4954854;28;20560;-79
2022/05/28 04:47:07;;;;;;;8.60;3.93;;;;;;;;;;4972040;28;20451;-79
2022/05/28 04:49:34;;;;;;;4.27;1.73;;;;;;;;;;4953053;28;20447;-78
2022/05/28 04:52:00;;;;;;;3.90;2.00;;;;;;;;;;4971254;28;20474;-77
2022/05/28 04:54:30;;;;;;;8.03;2.07;;;;;;;;;;4955099;28;20561;-77
2022/05/28 04:56:57;;;;;;;9.83;1.93;;;;;;;;;;4955107;28;20439;-77
2022/05/28 04:59:23;;;;;;;5.97;2.27;;;;;;;;;;4969685;28;20638;-79
2022/05/28 05:01:50;;;;;;;3.23;2.43;;;;;;;;;;4971704;28;20449;-78
2022/05/28 05:04:16;;;;;;;5.40;2.10;;;;;;;;;;4961832;28;20575;-79
2022/05/28 05:06:42;;;;;;;6.40;2.67;;;;;;;;;;4930147;29;20425;-79
2022/05/28 05:09:09;;;;;;;4.77;1.87;;;;;;;;;;4934012;29;20534;-76
2022/05/28 05:11:37;;;;;;;3.17;1.77;;;;;;;;;;4933237;29;20547;-76
2022/05/28 05:14:03;;;;;;;3.63;2.10;;;;;;;;;;4932512;29;21093;-76
2022/05/28 05:16:30;;;;;;;7.77;2.70;;;;;;;;;;4933884;29;20444;-76
2022/05/28 05:18:56;;;;;;;5.77;2.97;;;;;;;;;;4932234;29;20552;-74
2022/05/28 05:21:23;;;;;;;6.43;2.60;;;;;;;;;;4931996;29;20554;-74
2022/05/28 05:23:49;;;;;;;5.60;2.70;;;;;;;;;;4932213;29;20455;-75
2022/05/28 05:26:17;;;;;;;7.60;2.50;;;;;;;;;;4930146;29;20526;-75
2022/05/28 05:28:45;;;;;;;5.30;3.13;;;;;;;;;;4931531;29;20464;-76
2022/05/28 05:31:12;;;;;;;7.07;2.67;;;;;;;;;;4933099;29;20480;-76
2022/05/28 05:33:38;;;;;;;4.83;2.20;;;;;;;;;;4925112;29;20483;-76
2022/05/28 05:36:05;;;;;;;4.67;2.47;;;;;;;;;;4932499;29;20452;-76
2022/05/28 05:38:31;;;;;;;3.80;2.20;;;;;;;;;;4914684;29;20540;-76
2022/05/28 05:40:58;;;;;;;4.73;3.10;;;;;;;;;;4928182;29;20452;-76
2022/05/28 05:43:24;;;;;;;5.63;2.60;;;;;;;;;;4920129;29;20494;-76
2022/05/28 05:45:53;;;;;;;8.90;3.00;;;;;;;;;;4931394;29;20515;-75
2022/05/28 05:48:22;;;;;;;6.20;2.43;;;;;;;;;;4932924;29;20471;-76
2022/05/28 05:50:49;;;;;;;8.93;2.40;;;;;;;;;;4933968;29;20437;-73
2022/05/28 05:53:16;;;;;;;4.40;2.40;;;;;;;;;;4933693;29;20959;-73
2022/05/28 05:55:42;;;;;;;6.57;2.87;;;;;;;;;;4919972;29;20819;-76
2022/05/28 05:58:09;;;;;;;6.83;3.43;;;;;;;;;;4932699;29;20456;-76
2022/05/28 06:00:36;;;;;;;5.87;2.20;;;;;;;;;;4931695;29;20457;-76
2022/05/28 06:03:04;;;;;;;3.40;2.40;;;;;;;;;;4938442;29;20444;-76
2022/05/28 06:05:30;;;;;;;4.87;2.10;;;;;;;;;;4960119;28;20473;-76
2022/05/28 06:07:57;;;;;;;4.67;2.93;;;;;;;;;;4972540;28;20809;-76
2022/05/28 06:10:24;;;;;;;4.57;2.20;;;;;;;;;;4974840;28;20878;-76
2022/05/28 06:12:50;;;;;;;7.47;1.90;;;;;;;;;;4973427;28;20995;-75
2022/05/28 06:15:17;;;;;;;3.90;2.13;;;;;;;;;;4945628;28;20984;-76
2022/05/28 06:17:44;;;;;;;4.20;2.10;;;;;;;;;;4947605;28;20969;-76
2022/05/28 06:20:13;;;;;;;4.17;2.13;;;;;;;;;;4974314;28;20467;-75
2022/05/28 06:22:39;;;;;;;3.77;1.93;;;;;;;;;;4956355;28;20825;-76
2022/05/28 06:25:06;;;;;;;4.40;1.90;;;;;;;;;;4973215;28;20450;-76
2022/05/28 06:27:33;;;;;;;3.27;1.70;;;;;;;;;;4954387;28;20534;-75
2022/05/28 06:29:59;;;;;;;3.70;1.70;;;;;;;;;;4955632;28;20564;-76
2022/05/28 06:32:26;;;;;;;5.00;2.07;;;;;;;;;;4972799;28;20466;-76
2022/05/28 06:34:52;;;;;;;4.90;2.10;;;;;;;;;;4952864;28;20465;-75
2022/05/28 06:37:20;;;;;;;4.73;1.90;;;;;;;;;;4974151;28;20450;-76
2022/05/28 06:39:47;;;;;;;3.53;1.60;;;;;;;;;;4974400;28;20439;-76
2022/05/28 06:42:15;;;;;;;4.80;2.07;;;;;;;;;;4956192;28;20430;-76
2022/05/28 06:44:42;;;;;;;4.90;1.90;;;;;;;;;;4955753;28;20462;-76
2022/05/28 06:47:09;;;;;;;3.30;1.40;;;;;;;;;;4973594;28;20450;-76
2022/05/28 06:49:35;;;;;;;3.23;1.60;;;;;;;;;;4974088;28;20441;-75
2022/05/28 06:52:02;;;;;;;2.10;1.10;;;;;;;;;;4952644;28;20757;-76
2022/05/28 06:54:29;;;;;;;4.80;1.70;;;;;;;;;;4955853;28;20439;-76
2022/05/28 06:56:56;;;;;;;3.87;1.43;;;;;;;;;;4956188;28;20446;-75
2022/05/28 06:59:22;;;;;;;6.47;2.03;;;;;;;;;;4955438;28;20486;-78
2022/05/28 07:01:49;;;;;;;6.17;1.50;;;;;;;;;;4936046;28;20953;-75
2022/05/28 07:04:15;;;;;;;4.97;1.00;;;;;;;;;;4947515;29;20472;-75
2022/05/28 07:06:42;;;;;;;7.20;1.70;;;;;;;;;;4942403;29;20518;-75
2022/05/28 07:09:08;;;;;;;3.77;1.87;;;;;;;;;;4954318;28;20487;-75
2022/05/28 07:11:36;;;;;;;4.53;1.70;;;;;;;;;;4936142;29;20563;-75
2022/05/28 07:14:03;;;;;;;3.20;1.40;;;;;;;;;;4954015;28;20521;-75
2022/05/28 07:16:29;;;;;;;3.77;1.87;;;;;;;;;;4953442;29;20482;-75
2022/05/28 07:18:56;;;;;;;5.23;1.37;;;;;;;;;;4954707;29;20454;-75
2022/05/28 07:21:22;;;;;;;5.60;1.80;;;;;;;;;;4952572;28;20466;-75
2022/05/28 07:23:49;;;;;;;3.40;1.43;;;;;;;;;;4952735;29;20772;-76
2022/05/28 07:26:16;;;;;;;4.50;2.73;;;;;;;;;;4951685;29;20821;-75
2022/05/28 07:28:45;;;;;;;3.20;1.40;;;;;;;;;;4950205;29;20440;-76
2022/05/28 07:31:12;;;;;;;3.87;1.30;;;;;;;;;;4936895;29;20464;-75
2022/05/28 07:33:40;;;;;;;4.63;1.30;;;;;;;;;;4939199;29;20848;-76
2022/05/28 07:36:07;;;;;;;1.97;1.20;;;;;;;;;;4944787;29;20454;-75
2022/05/28 07:38:35;;;;;;;2.50;1.40;;;;;;;;;;4953507;29;20456;-75
2022/05/28 07:41:02;;;;;;;2.93;1.30;;;;;;;;;;4953167;29;20549;-75
2022/05/28 07:43:29;;;;;;;3.40;1.50;;;;;;;;;;4947464;29;20453;-75
2022/05/28 07:45:57;;;;;;;3.60;1.40;;;;;;;;;;4963956;28;20526;-74
2022/05/28 07:48:23;;;;;;;4.70;1.33;;;;;;;;;;4953417;28;20546;-74
2022/05/28 07:50:50;;;;;;;3.37;1.57;;;;;;;;;;4952400;29;20435;-74
2022/05/28 07:53:17;;;;;;;2.87;1.30;;;;;;;;;;4953125;29;20505;-74
2022/05/28 07:55:43;;;;;;;3.80;1.50;;;;;;;;;;4952192;29;20443;-77
2022/05/28 07:58:10;;;;;;;2.90;1.10;;;;;;;;;;4952716;29;20466;-74
2022/05/28 08:00:38;;;;;;;2.10;0.90;;;;;;;;;;4951930;28;20466;-74
2022/05/28 08:03:07;;;;;;;1.87;1.00;;;;;;;;;;4953514;28;20542;-74
2022/05/28 08:05:33;;;;;;;3.00;1.10;;;;;;;;;;4936470;29;20483;-75
2022/05/28 08:08:00;;;;;;;3.27;1.30;;;;;;;;;;4949560;29;20978;-74
2022/05/28 08:10:26;;;;;;;2.27;1.30;;;;;;;;;;4953163;29;20428;-76
2022/05/28 08:12:53;;;;;;;2.13;1.30;;;;;;;;;;4952277;29;20562;-77
2022/05/28 08:15:19;;;;;;;3.80;1.20;;;;;;;;;;4951810;29;20436;-76
2022/05/28 08:17:46;;;;;;;4.40;1.20;;;;;;;;;;4943476;28;20473;-77
2022/05/28 08:20:14;;;;;;;3.90;2.10;;;;;;;;;;4942265;28;20455;-77
2022/05/28 08:25:24;;;;;;;3.83;1.00;;;;;;;;;;4946300;29;20798;-76
2022/05/28 08:27:51;;;;;;;1.67;1.13;;;;;;;;;;4930719;29;20539;-74
2022/05/28 08:30:18;;;;;;;2.90;1.37;;;;;;;;;;4936741;29;20472;-76
2022/05/28 08:32:44;;;;;;;2.03;0.93;;;;;;;;;;4935118;29;20463;-74
2022/05/28 08:35:11;;;;;;;2.20;0.90;;;;;;;;;;4948985;29;20448;-74
2022/05/28 08:37:38;;;;;;;2.13;1.20;;;;;;;;;;4950158;28;20807;-74
2022/05/28 08:40:06;;;;;;;3.10;1.23;;;;;;;;;;4951391;29;20856;-74
2022/05/28 08:42:32;;;;;;;2.00;1.10;;;;;;;;;;4951179;29;20543;-74
2022/05/28 08:45:01;;;;;;;2.10;1.30;;;;;;;;;;4962028;28;21861;-77
2022/05/28 08:47:48;;;;;;;1.87;0.90;;;;;;;;;;4952948;29;20526;-77
2022/05/28 08:50:16;;;;;;;2.23;1.20;;;;;;;;;;4944436;29;20464;-77
2022/05/28 08:52:47;;;;;;;4.37;1.40;;;;;;;;;;4948908;29;20563;-79
2022/05/28 08:55:17;;;;;;;3.33;1.10;;;;;;;;;;4951936;29;20455;-80
2022/05/28 08:57:57;;;;;;;1.90;1.20;;;;;;;;;;4936748;29;20451;-80
2022/05/28 09:00:33;;;;;;;2.23;1.50;;;;;;;;;;4952298;29;20459;-78
2022/05/28 09:03:02;;;;;;;4.30;1.30;;;;;;;;;;4930692;29;20455;-78
2022/05/28 09:05:31;;;;;;;3.43;1.73;;;;;;;;;;4953626;28;20496;-80
2022/05/28 09:08:00;;;;;;;2.87;1.17;;;;;;;;;;4972428;28;20454;-80
2022/05/28 09:10:28;;;;;;;2.37;1.40;;;;;;;;;;4953966;28;20877;-80
2022/05/28 09:12:56;;;;;;;2.33;1.10;;;;;;;;;;4952950;28;20478;-80
2022/05/28 09:15:23;;;;;;;3.50;1.50;;;;;;;;;;4954314;28;20482;-77
2022/05/28 09:17:51;;;;;;;3.43;1.60;;;;;;;;;;4971950;28;20449;-78
2022/05/28 09:20:20;;;;;;;2.87;1.77;;;;;;;;;;4971270;28;20449;-77
2022/05/28 09:22:47;;;;;;;2.03;1.30;;;;;;;;;;4953030;28;20443;-77
2022/05/28 09:25:15;;;;;;;1.33;1.00;;;;;;;;;;4936715;28;20446;-77
2022/05/28 09:27:52;;;;;;;2.33;1.67;;;;;;;;;;4972849;28;20475;-78
2022/05/28 09:30:22;;;;;;;3.80;1.80;;;;;;;;;;4956592;28;20442;-78
2022/05/28 09:33:03;;;;;;;2.17;1.30;;;;;;;;;;4967753;28;20462;-77
2022/05/28 09:35:35;;;;;;;1.63;1.10;;;;;;;;;;4942302;28;20434;-77
2022/05/28 09:38:03;;;;;;;3.33;1.43;;;;;;;;;;4975922;28;20442;-77
2022/05/28 09:40:38;;;;;;;4.23;1.47;;;;;;;;;;4958591;28;20494;-80
2022/05/28 09:43:21;;;;;;;3.00;1.50;;;;;;;;;;4966267;28;20438;-80
2022/05/28 09:45:53;;;;;;;3.63;1.60;;;;;;;;;;4972124;28;20965;-80
2022/05/28 09:48:21;;;;;;;2.87;1.10;;;;;;;;;;4975400;28;20829;-80
2022/05/28 09:50:47;;;;;;;2.80;1.40;;;;;;;;;;4958076;28;20879;-79
2022/05/28 09:56:09;;;;;;;1.87;1.30;;;;;;;;;;4974426;28;20437;-80
2022/05/28 09:58:40;;;;;;;2.83;1.50;;;;;;;;;;4975657;28;20446;-79
2022/05/28 10:01:08;;;;;;;2.17;1.10;;;;;;;;;;4955122;29;20538;-79
2022/05/28 10:06:19;;;;;;;3.20;1.30;;;;;;;;;;4961801;28;20933;-79
2022/05/28 10:08:46;;;;;;;2.60;1.30;;;;;;;;;;4940629;28;20470;-79
2022/05/28 10:11:18;;;;;;;3.50;1.50;;;;;;;;;;4957471;28;20482;-79
2022/05/28 10:13:46;;;;;;;2.50;1.40;;;;;;;;;;4971009;28;21007;-79
2022/05/28 10:16:13;;;;;;;4.10;1.60;;;;;;;;;;4954978;28;20461;-79
2022/05/28 10:18:41;;;;;;;3.00;1.27;;;;;;;;;;4972068;28;20971;-79
2022/05/28 10:21:11;;;;;;;3.10;1.70;;;;;;;;;;4949582;28;20510;-79
2022/05/28 10:23:39;;;;;;;4.50;1.37;;;;;;;;;;4956856;28;20451;-79
2022/05/28 10:26:06;;;;;;;3.87;1.40;;;;;;;;;;4974234;28;20450;-79
2022/05/28 10:28:41;;;;;;;2.50;1.20;;;;;;;;;;4951776;29;20447;-79
2022/05/28 10:31:14;;;;;;;2.20;1.07;;;;;;;;;;4972835;28;20441;-79
2022/05/28 10:33:43;;;;;;;2.53;1.73;;;;;;;;;;4973456;28;20581;-79
2022/05/28 10:36:11;;;;;;;2.43;1.20;;;;;;;;;;4962621;28;21100;-79
2022/05/28 10:38:37;;;;;;;2.23;1.10;;;;;;;;;;4957226;28;20466;-79
2022/05/28 10:41:16;;;;;;;3.07;1.90;;;;;;;;;;4948146;28;20455;-79
2022/05/28 10:43:44;;;;;;;2.27;1.03;;;;;;;;;;4973519;28;20874;-79
2022/05/28 10:46:13;;;;;;;1.37;1.13;;;;;;;;;;4972699;28;20544;-79
2022/05/28 10:48:48;;;;;;;3.10;1.10;;;;;;;;;;4974169;28;20537;-79
2022/05/28 10:51:18;;;;;;;2.50;1.40;;;;;;;;;;4972135;28;20453;-79
2022/05/28 10:53:53;;;;;;;1.83;1.20;;;;;;;;;;4972437;28;20482;-79
2022/05/28 10:56:29;;;;;;;3.00;1.23;;;;;;;;;;4949114;28;20525;-79
2022/05/28 10:59:01;;;;;;;2.93;1.43;;;;;;;;;;4953744;28;20493;-78
2022/05/28 11:01:45;;;;;;;5.10;1.50;;;;;;;;;;4971725;28;20419;-79
2022/05/28 11:04:26;;;;;;;3.20;1.30;;;;;;;;;;4953565;28;20536;-79
2022/05/28 11:07:01;;;;;;;4.27;1.60;;;;;;;;;;4960501;28;20828;-79
2022/05/28 11:09:34;;;;;;;1.97;1.37;;;;;;;;;;4939898;28;21022;-79
2022/05/28 11:12:05;;;;;;;3.33;1.30;;;;;;;;;;4973651;28;20438;-79
2022/05/28 11:14:56;;;;;;;1.93;1.40;;;;;;;;;;4954639;28;20490;-79
2022/05/28 11:17:31;;;;;;;2.60;1.57;;;;;;;;;;4949817;28;20568;-79
2022/05/28 11:20:07;;;;;;;2.63;1.90;;;;;;;;;;4974800;28;20449;-79
2022/05/28 11:22:43;;;;;;;2.40;1.50;;;;;;;;;;4973794;28;20798;-79
2022/05/28 11:25:13;;;;;;;2.27;1.40;;;;;;;;;;4968602;28;20499;-80
2022/05/28 11:27:46;;;;;;;4.20;1.00;;;;;;;;;;4970553;28;20458;-79
2022/05/28 11:30:15;;;;;;;2.03;1.40;;;;;;;;;;4975053;28;20549;-79
2022/05/28 11:32:45;;;;;;;8.97;2.27;;;;;;;;;;4973200;28;20494;-79
2022/05/28 11:35:16;;;;;;;3.33;1.53;;;;;;;;;;4967645;28;20456;-78
2022/05/28 11:37:44;;;;;;;3.70;1.70;;;;;;;;;;4955499;28;20453;-79
2022/05/28 11:40:15;;;;;;;3.53;1.53;;;;;;;;;;4977505;28;20451;-79
2022/05/28 11:42:47;;;;;;;2.13;1.60;;;;;;;;;;4967074;28;20489;-80
2022/05/28 11:45:17;;;;;;;3.37;1.27;;;;;;;;;;4973516;28;20501;-79
2022/05/28 11:47:49;;;;;;;1.87;1.10;;;;;;;;;;4955085;28;20462;-79
2022/05/28 11:53:09;;;;;;;5.03;2.17;;;;;;;;;;4954505;28;20466;-79
2022/05/28 11:55:36;;;;;;;3.40;1.30;;;;;;;;;;4960479;28;20497;-79
2022/05/28 11:58:05;;;;;;;3.93;1.20;;;;;;;;;;4961528;28;20451;-79
2022/05/28 12:00:33;;;;;;;1.93;1.17;;;;;;;;;;4971889;28;20533;-79
2022/05/28 12:03:04;;;;;;;4.10;2.07;;;;;;;;;;4971765;28;20805;-79
2022/05/28 12:05:40;;;;;;;2.97;1.43;;;;;;;;;;4971182;28;20825;-79
2022/05/28 12:08:07;;;;;;;1.77;1.10;;;;;;;;;;4956648;28;20832;-77
2022/05/28 12:10:39;;;;;;;2.20;1.30;;;;;;;;;;4971393;28;20545;-80
2022/05/28 12:13:06;;;;;;;1.93;0.87;;;;;;;;;;4953590;28;20501;-80
2022/05/28 12:15:42;;;;;;;5.83;2.10;;;;;;;;;;4972657;28;20442;-79
2022/05/28 12:18:22;;;;;;;2.70;1.27;;;;;;;;;;4972709;28;20425;-79
2022/05/28 12:20:51;;;;;;;2.00;1.50;;;;;;;;;;4954928;28;20904;-79
2022/05/28 12:23:28;;;;;;;2.53;1.33;;;;;;;;;;4954730;28;20446;-79
2022/05/28 12:25:54;;;;;;;3.73;1.70;;;;;;;;;;4956488;28;20455;-79
2022/05/28 12:28:24;;;;;;;1.77;1.40;;;;;;;;;;4972574;28;20545;-79
2022/05/28 12:30:53;;;;;;;2.57;1.50;;;;;;;;;;4955297;28;20541;-77
2022/05/28 12:33:30;;;;;;;3.90;1.63;;;;;;;;;;4952964;28;20474;-78
2022/05/28 12:36:05;;;;;;;6.70;1.47;;;;;;;;;;4970740;28;20450;-78
2022/05/28 12:38:38;;;;;;;3.27;1.87;;;;;;;;;;4969482;28;20476;-78
2022/05/28 12:41:05;;;;;;;2.27;1.27;;;;;;;;;;4971610;28;20458;-78
2022/05/28 12:43:33;;;;;;;3.80;1.43;;;;;;;;;;4951756;28;20497;-78
2022/05/28 12:46:11;;;;;;;1.80;1.50;;;;;;;;;;4956080;28;20545;-78
2022/05/28 12:48:49;;;;;;;2.63;1.53;;;;;;;;;;4940759;28;20806;-80
2022/05/28 12:51:22;;;;;;;2.30;1.60;;;;;;;;;;4952853;28;20860;-79
2022/05/28 12:53:50;;;;;;;2.87;1.60;;;;;;;;;;4966132;28;20799;-79
2022/05/28 12:56:22;;;;;;;2.27;1.40;;;;;;;;;;4953986;28;20451;-79
2022/05/28 12:58:48;;;;;;;3.73;1.60;;;;;;;;;;4954321;28;20949;-80
2022/05/28 13:01:19;;;;;;;3.50;1.40;;;;;;;;;;4952311;28;20450;-79
2022/05/28 13:03:48;;;;;;;3.20;1.57;;;;;;;;;;4971711;28;20430;-79
2022/05/28 13:06:20;;;;;;;2.30;1.53;;;;;;;;;;4972292;28;20474;-79
2022/05/28 13:08:50;;;;;;;4.70;1.80;;;;;;;;;;4957772;28;20437;-80
2022/05/28 13:11:27;;;;;;;3.47;1.53;;;;;;;;;;4974084;28;20474;-80
2022/05/28 13:14:14;;;;;;;1.90;1.43;;;;;;;;;;4956882;28;20482;-77
2022/05/28 13:16:56;;;;;;;2.07;1.60;;;;;;;;;;4917000;28;20463;-77
2022/05/28 13:19:36;;;;;;;2.60;1.67;;;;;;;;;;4963650;28;20556;-79
2022/05/28 13:22:06;;;;;;;3.63;1.60;;;;;;;;;;4957386;28;20438;-79
2022/05/28 13:24:51;;;;;;;2.20;1.43;;;;;;;;;;4956723;28;20451;-79
2022/05/28 13:27:27;;;;;;;2.57;1.53;;;;;;;;;;4973809;28;20461;-79
2022/05/28 13:30:04;;;;;;;2.60;1.50;;;;;;;;;;4968171;28;20450;-79
2022/05/28 13:32:33;;;;;;;1.43;1.10;;;;;;;;;;4951292;29;20506;-79
2022/05/28 13:35:01;;;;;;;2.10;1.53;;;;;;;;;;4972501;28;20489;-80
2022/05/28 13:37:28;;;;;;;2.33;1.60;;;;;;;;;;4963567;28;20838;-79
2022/05/28 13:39:56;;;;;;;2.90;1.23;;;;;;;;;;4985990;28;20537;-80
2022/05/28 13:42:24;;;;;;;4.40;1.80;;;;;;;;;;4979240;28;20520;-79
2022/05/28 13:44:52;;;;;;;1.97;1.10;;;;;;;;;;4958297;28;20435;-80
2022/05/28 13:47:26;;;;;;;1.63;1.10;;;;;;;;;;4973689;28;20446;-79
2022/05/28 13:49:53;;;;;;;2.90;1.67;;;;;;;;;;4974111;28;20444;-79
2022/05/28 13:52:21;;;;;;;1.93;1.20;;;;;;;;;;4969348;28;20464;-79
2022/05/28 13:54:56;;;;;;;1.90;1.47;;;;;;;;;;4937438;29;20752;-79
2022/05/28 13:57:39;;;;;;;2.80;1.27;;;;;;;;;;4969880;28;20944;-79
2022/05/28 14:00:11;;;;;;;4.07;1.70;;;;;;;;;;4969932;28;20458;-79
2022/05/28 14:02:38;;;;;;;1.37;1.20;;;;;;;;;;4974512;28;20992;-79
2022/05/28 14:05:05;;;;;;;3.00;1.70;;;;;;;;;;4957296;28;20470;-79
2022/05/28 14:07:33;;;;;;;2.90;1.67;;;;;;;;;;4977949;28;20458;-79
2022/05/28 14:10:01;;;;;;;2.90;1.30;;;;;;;;;;4966915;28;20442;-79
2022/05/28 14:12:30;;;;;;;4.37;1.20;;;;;;;;;;4959660;28;20856;-79
2022/05/28 14:14:57;;;;;;;2.17;1.60;;;;;;;;;;4975131;28;20478;-77
2022/05/28 14:17:26;;;;;;;1.57;1.27;;;;;;;;;;4957252;28;20494;-79
2022/05/28 14:19:58;;;;;;;1.70;1.60;;;;;;;;;;4972419;28;20442;-79
2022/05/28 14:22:31;;;;;;;6.70;1.57;;;;;;;;;;4955634;28;20498;-79
2022/05/28 14:25:01;;;;;;;2.33;1.10;;;;;;;;;;4969427;28;20503;-79
2022/05/28 14:27:28;;;;;;;1.90;1.30;;;;;;;;;;4966503;28;20814;-79
2022/05/28 14:29:55;;;;;;;2.20;1.33;;;;;;;;;;4932189;28;20431;-76
2022/05/28 14:32:25;;;;;;;4.03;1.40;;;;;;;;;;4961844;28;20452;-76
2022/05/28 14:34:52;;;;;;;2.63;1.43;;;;;;;;;;4952946;28;20466;-79
2022/05/28 14:37:25;;;;;;;2.63;1.50;;;;;;;;;;4958371;28;20454;-78
2022/05/28 14:39:52;;;;;;;1.70;1.30;;;;;;;;;;4956080;28;20449;-79
2022/05/28 14:42:26;;;;;;;2.20;1.70;;;;;;;;;;4966061;28;20902;-79
2022/05/28 14:44:53;;;;;;;2.10;1.27;;;;;;;;;;4961767;28;20430;-79
2022/05/28 14:47:23;;;;;;;1.30;1.20;;;;;;;;;;4927984;28;20489;-78
2022/05/28 14:49:52;;;;;;;2.80;1.60;;;;;;;;;;4956027;28;21047;-79
2022/05/28 14:52:20;;;;;;;2.13;1.43;;;;;;;;;;4973513;28;20545;-79
2022/05/28 14:54:50;;;;;;;1.60;1.30;;;;;;;;;;4956630;28;20525;-79
2022/05/28 14:57:23;;;;;;;2.87;1.30;;;;;;;;;;4957387;28;20458;-79
2022/05/28 14:59:50;;;;;;;2.63;1.40;;;;;;;;;;4972845;28;20438;-79
2022/05/28 15:02:28;;;;;;;1.97;1.30;;;;;;;;;;4973698;28;20442;-79
2022/05/28 15:05:09;;;;;;;2.70;1.60;;;;;;;;;;4927999;28;20466;-79